createdAt,value
2023-02-15T00:00:26.371Z,67.07
2023-02-15T00:03:28.734Z,64.65
2023-02-15T00:06:30.716Z,74.55
2023-02-15T00:09:39.205Z,71.88
2023-02-15T00:12:41.327Z,70.63
2023-02-15T00:15:43.305Z,65.95
2023-02-15T00:18:45.413Z,69.20
2023-02-15T00:21:47.768Z,67.93
2023-02-15T00:24:51.146Z,62.53
2023-02-15T00:27:53.092Z,57.88
2023-02-15T00:30:55.124Z,64.67
2023-02-15T00:33:57.784Z,57.00
2023-02-15T00:37:00.444Z,61.53
2023-02-15T00:40:02.870Z,62.28
2023-02-15T00:43:05.914Z,62.10
2023-02-15T00:46:08.012Z,65.38
2023-02-15T00:49:10.698Z,60.65
2023-02-15T00:52:13.646Z,53.43
2023-02-15T00:55:15.801Z,63.60
2023-02-15T00:58:18.149Z,57.35
2023-02-15T01:01:21.399Z,45.73
2023-02-15T01:04:23.573Z,54.75
2023-02-15T01:07:25.572Z,52.97
2023-02-15T01:10:28.562Z,54.30
2023-02-15T01:13:31.600Z,55.20
2023-02-15T01:16:33.983Z,56.83
2023-02-15T01:19:35.978Z,55.75
2023-02-15T01:22:38.090Z,51.67
2023-02-15T01:25:40.568Z,54.20
2023-02-15T01:28:42.505Z,57.22
2023-02-15T01:31:44.595Z,53.37
2023-02-15T01:34:46.613Z,59.65
2023-02-15T01:37:49.019Z,60.00
2023-02-15T01:40:54.116Z,56.08
2023-02-15T01:43:57.093Z,54.03
2023-02-15T01:47:00.444Z,56.75
2023-02-15T01:50:04.564Z,61.47
2023-02-15T01:53:12.845Z,58.23
2023-02-15T01:56:19.140Z,58.55
2023-02-15T01:59:24.573Z,59.40
2023-02-15T02:02:26.767Z,60.90
2023-02-15T02:05:28.933Z,56.17
2023-02-15T02:08:31.369Z,53.65
2023-02-15T02:11:33.515Z,55.35
2023-02-15T02:14:35.857Z,54.75
2023-02-15T02:17:38.837Z,56.33
2023-02-15T02:21:00.055Z,60.42
2023-02-15T02:24:11.203Z,51.17
2023-02-15T02:27:19.722Z,53.47
2023-02-15T02:30:28.149Z,57.30
2023-02-15T02:33:34.275Z,55.00
2023-02-15T02:36:36.778Z,47.05
2023-02-15T02:39:43.068Z,51.38
2023-02-15T02:42:48.793Z,47.30
2023-02-15T02:45:50.886Z,44.17
2023-02-15T02:48:52.985Z,47.67
2023-02-15T02:52:04.577Z,50.17
2023-02-15T02:55:17.046Z,45.07
2023-02-15T02:58:25.425Z,46.92
2023-02-15T03:01:34.477Z,43.38
2023-02-15T03:04:36.994Z,43.77
2023-02-15T03:07:39.060Z,47.42
2023-02-15T03:10:41.036Z,44.17
2023-02-15T03:13:43.250Z,42.65
2023-02-15T03:16:46.202Z,38.33
2023-02-15T03:19:49.418Z,40.85
2023-02-15T03:22:54.514Z,40.90
2023-02-15T03:25:57.890Z,46.43
2023-02-15T03:29:00.928Z,39.38
2023-02-15T03:32:04.488Z,37.25
2023-02-15T03:35:07.139Z,36.03
2023-02-15T03:38:09.897Z,41.83
2023-02-15T03:41:12.016Z,36.40
2023-02-15T03:44:18.101Z,38.00
2023-02-15T03:47:21.405Z,38.58
2023-02-15T03:50:49.148Z,41.28
2023-02-15T03:53:51.173Z,42.72
2023-02-15T03:57:13.545Z,43.20
2023-02-15T04:00:44.134Z,44.10
2023-02-15T04:03:49.048Z,39.67
2023-02-15T04:06:51.245Z,42.67
2023-02-15T04:10:12.336Z,44.50
2023-02-15T04:13:14.590Z,45.55
2023-02-15T04:16:16.633Z,46.35
2023-02-15T04:19:37.610Z,40.85
2023-02-15T04:22:58.522Z,40.58
2023-02-15T04:26:03.698Z,42.20
2023-02-15T04:29:05.774Z,47.67
2023-02-15T04:32:08.210Z,39.83
2023-02-15T04:35:10.509Z,40.50
2023-02-15T04:38:12.946Z,38.77
2023-02-15T04:41:14.966Z,40.20
2023-02-15T04:44:17.014Z,42.00
2023-02-15T04:47:19.118Z,41.58
2023-02-15T04:50:21.475Z,46.70
2023-02-15T04:53:23.439Z,46.85
2023-02-15T04:56:25.676Z,53.28
2023-02-15T04:59:28.177Z,56.73
2023-02-15T05:02:31.787Z,45.33
2023-02-15T05:05:34.011Z,52.78
2023-02-15T05:08:36.478Z,47.30
2023-02-15T05:11:38.688Z,46.55
2023-02-15T05:14:41.113Z,50.83
2023-02-15T05:17:43.409Z,55.45
2023-02-15T05:20:45.567Z,50.97
2023-02-15T05:23:47.801Z,60.13
2023-02-15T05:27:08.695Z,41.60
2023-02-15T05:30:12.930Z,39.07
2023-02-15T05:33:15.466Z,39.40
2023-02-15T05:36:23.512Z,40.10
2023-02-15T05:39:35.834Z,40.37
2023-02-15T05:42:43.569Z,41.53
2023-02-15T05:45:49.018Z,43.75
2023-02-15T05:48:51.055Z,42.40
2023-02-15T05:51:53.525Z,46.05
2023-02-15T05:54:55.593Z,44.63
2023-02-15T05:57:57.618Z,42.88
2023-02-15T06:00:59.746Z,41.70
2023-02-15T06:04:02.155Z,44.13
2023-02-15T06:07:04.217Z,39.70
2023-02-15T06:10:06.700Z,50.97
2023-02-15T06:13:09.133Z,71.30
2023-02-15T06:16:11.274Z,49.58
2023-02-15T06:19:13.731Z,48.47
2023-02-15T06:22:15.802Z,49.80
2023-02-15T06:25:18.571Z,57.95
2023-02-15T06:28:20.662Z,66.20
2023-02-15T06:31:23.205Z,55.83
2023-02-15T06:34:25.556Z,53.13
2023-02-15T06:37:27.923Z,49.88
2023-02-15T06:40:29.963Z,53.50
2023-02-15T06:43:32.090Z,49.10
2023-02-15T06:46:34.390Z,56.80
2023-02-15T06:49:36.555Z,46.50
2023-02-15T06:52:45.499Z,60.42
2023-02-15T06:55:47.593Z,54.33
2023-02-15T06:58:50.604Z,51.83
2023-02-15T07:01:54.366Z,58.90
2023-02-15T07:04:57.429Z,54.25
2023-02-15T07:08:00.597Z,57.40
2023-02-15T07:11:22.957Z,50.17
2023-02-15T07:14:34.420Z,50.80
2023-02-15T07:17:40.306Z,54.05
2023-02-15T07:20:45.432Z,53.20
2023-02-15T07:24:01.295Z,57.50
2023-02-15T07:27:31.891Z,49.63
2023-02-15T07:30:37.352Z,56.35
2023-02-15T07:33:39.614Z,54.70
2023-02-15T07:36:42.144Z,52.60
2023-02-15T07:39:44.374Z,55.20
2023-02-15T07:42:46.604Z,52.20
2023-02-15T07:45:48.851Z,54.17
2023-02-15T07:48:50.943Z,53.00
2023-02-15T07:51:53.034Z,53.80
2023-02-15T07:54:54.985Z,60.70
2023-02-15T07:57:57.016Z,54.22
2023-02-15T08:00:59.214Z,52.75
2023-02-15T08:04:01.856Z,50.47
2023-02-15T08:07:05.230Z,49.45
2023-02-15T08:10:07.562Z,45.90
2023-02-15T08:13:09.556Z,48.60
2023-02-15T08:16:14.198Z,51.72
2023-02-15T08:19:20.557Z,41.50
2023-02-15T08:22:22.672Z,30.75
2023-02-15T08:25:24.854Z,33.30
2023-02-15T08:28:27.485Z,31.70
2023-02-15T08:31:29.706Z,35.95
2023-02-15T08:34:32.538Z,31.43
2023-02-15T08:37:34.983Z,32.28
2023-02-15T08:40:39.189Z,34.55
2023-02-15T08:43:41.756Z,31.50
2023-02-15T08:46:44.139Z,29.02
2023-02-15T08:49:46.192Z,29.73
2023-02-15T08:52:48.335Z,29.83
2023-02-15T08:55:57.497Z,30.65
2023-02-15T08:58:59.761Z,29.52
2023-02-15T09:02:01.798Z,33.17
2023-02-15T09:05:04.209Z,31.60
2023-02-15T09:08:06.352Z,30.98
2023-02-15T09:15:02.432Z,29.00
2023-02-15T09:18:07.857Z,34.13
2023-02-15T09:21:15.969Z,42.80
2023-02-15T09:24:18.266Z,35.10
2023-02-15T09:27:20.303Z,34.47
2023-02-15T09:30:22.596Z,29.67
2023-02-15T09:33:27.020Z,31.60
2023-02-15T09:36:32.835Z,32.27
2023-02-15T09:39:39.977Z,30.73
2023-02-15T09:43:00.417Z,32.63
2023-02-15T09:46:31.432Z,28.93
2023-02-15T09:49:37.607Z,30.83
2023-02-15T09:53:08.677Z,27.60
2023-02-15T09:56:11.153Z,31.35
2023-02-15T09:59:21.722Z,35.07
2023-02-15T10:02:38.104Z,32.58
2023-02-15T10:05:46.205Z,33.63
2023-02-15T10:08:51.181Z,36.70
2023-02-15T10:11:56.476Z,32.33
2023-02-15T10:15:10.158Z,29.67
2023-02-15T10:18:31.168Z,30.30
2023-02-15T10:21:41.317Z,30.97
2023-02-15T10:25:02.900Z,29.13
2023-02-15T10:28:06.914Z,29.70
2023-02-15T10:31:14.216Z,30.48
2023-02-15T10:34:17.532Z,26.17
2023-02-15T10:37:19.946Z,27.57
2023-02-15T10:40:42.213Z,27.20
2023-02-15T10:43:44.280Z,31.50
2023-02-15T10:47:06.296Z,27.10
2023-02-15T10:50:14.141Z,30.83
2023-02-15T10:53:19.412Z,27.00
2023-02-15T10:56:25.979Z,32.28
2023-02-15T10:59:34.677Z,27.90
2023-02-15T11:02:53.056Z,24.38
2023-02-15T11:06:05.821Z,28.60
2023-02-15T11:09:11.182Z,25.33
2023-02-15T11:12:15.348Z,28.85
2023-02-15T11:15:17.479Z,27.08
2023-02-15T11:18:31.785Z,28.35
2023-02-15T11:21:37.857Z,25.27
2023-02-15T11:24:46.286Z,23.73
2023-02-15T11:27:48.700Z,23.73
2023-02-15T11:30:53.302Z,31.05
2023-02-15T11:33:57.245Z,33.95
2023-02-15T11:37:00.139Z,32.65
2023-02-15T11:40:02.758Z,31.87
2023-02-15T11:43:06.333Z,34.17
2023-02-15T11:46:10.752Z,34.30
2023-02-15T11:49:24.730Z,34.38
2023-02-15T11:52:26.848Z,30.88
2023-02-15T11:55:30.212Z,33.40
2023-02-15T11:58:35.359Z,33.42
2023-02-15T12:01:37.430Z,33.65
2023-02-15T12:04:40.766Z,36.47
2023-02-15T12:07:45.114Z,32.10
2023-02-15T12:11:02.430Z,33.30
2023-02-15T12:14:16.883Z,32.28
2023-02-15T12:17:19.903Z,31.50
2023-02-15T12:20:25.487Z,26.10
2023-02-15T12:23:28.344Z,27.77
2023-02-15T12:26:32.062Z,28.40
2023-02-15T12:29:41.394Z,26.60
2023-02-15T12:32:49.243Z,28.08
2023-02-15T12:35:56.214Z,26.02
2023-02-15T12:39:14.048Z,26.95
2023-02-15T12:42:16.591Z,28.83
2023-02-15T12:45:25.607Z,25.15
2023-02-15T12:48:27.701Z,29.88
2023-02-15T12:51:29.725Z,29.67
2023-02-15T12:54:33.208Z,34.63
2023-02-15T12:57:35.310Z,32.53
2023-02-15T13:00:38.133Z,30.80
2023-02-15T13:03:59.038Z,33.92
2023-02-15T13:07:02.403Z,33.90
2023-02-15T13:10:05.058Z,33.70
2023-02-15T13:13:11.441Z,35.17
2023-02-15T13:16:14.102Z,35.53
2023-02-15T13:19:17.244Z,38.08
2023-02-15T13:22:38.209Z,38.28
2023-02-15T13:25:44.014Z,39.80
2023-02-15T13:28:47.481Z,34.10
2023-02-15T13:31:50.928Z,37.83
2023-02-15T13:34:54.507Z,38.40
2023-02-15T13:38:01.189Z,38.58
2023-02-15T13:41:04.899Z,33.13
2023-02-15T13:44:12.617Z,35.27
2023-02-15T13:47:28.713Z,33.65
2023-02-15T13:50:30.824Z,35.90
2023-02-15T13:53:51.868Z,38.70
2023-02-15T13:57:16.972Z,35.72
2023-02-15T14:00:32.365Z,39.33
2023-02-15T14:03:53.658Z,37.88
2023-02-15T14:07:01.793Z,44.95
2023-02-15T14:10:15.376Z,35.72
2023-02-15T14:13:37.232Z,37.17
2023-02-15T14:17:07.498Z,38.80
2023-02-15T14:20:16.340Z,36.05
2023-02-15T14:23:30.681Z,37.50
2023-02-15T14:26:39.163Z,36.70
2023-02-15T14:30:04.680Z,35.22
2023-02-15T14:33:08.253Z,40.90
2023-02-15T14:36:12.557Z,41.67
2023-02-15T14:39:38.418Z,40.47
2023-02-15T14:42:52.569Z,37.78
2023-02-15T14:45:57.374Z,39.75
2023-02-15T14:49:04.862Z,38.23
2023-02-15T14:52:09.483Z,38.72
2023-02-15T14:55:11.695Z,41.75
2023-02-15T14:58:13.797Z,55.42
2023-02-15T15:01:15.884Z,36.03
2023-02-15T15:04:28.365Z,38.47
2023-02-15T15:07:43.555Z,36.20
2023-02-15T15:10:46.776Z,39.88
2023-02-15T15:13:58.264Z,41.55
2023-02-15T15:17:00.965Z,52.45
2023-02-15T15:20:15.061Z,37.50
2023-02-15T15:23:19.089Z,37.88
2023-02-15T15:26:25.491Z,41.33
2023-02-15T15:29:40.193Z,44.92
2023-02-15T15:32:44.342Z,47.78
2023-02-15T15:36:04.901Z,38.47
2023-02-15T15:39:06.932Z,38.85
2023-02-15T15:42:18.335Z,36.72
2023-02-15T15:45:23.602Z,37.72
2023-02-15T15:48:33.576Z,37.63
2023-02-15T15:51:37.214Z,35.97
2023-02-15T15:54:39.946Z,39.30
2023-02-15T15:57:42.594Z,36.88
2023-02-15T16:00:47.761Z,42.77
2023-02-15T16:03:51.531Z,40.27
2023-02-15T16:06:53.949Z,41.35
2023-02-15T16:09:59.073Z,45.58
2023-02-15T16:13:01.288Z,48.10
2023-02-15T16:16:04.187Z,57.33
2023-02-15T16:19:06.959Z,50.92
2023-02-15T16:22:13.298Z,54.55
2023-02-15T16:25:18.861Z,47.17
2023-02-15T16:28:21.433Z,53.80
2023-02-15T16:31:23.629Z,54.50
2023-02-15T16:34:29.079Z,55.35
2023-02-15T16:37:34.744Z,61.63
2023-02-15T16:40:58.336Z,63.33
2023-02-15T16:44:02.482Z,61.13
2023-02-15T16:47:05.462Z,62.07
2023-02-15T16:50:07.630Z,61.42
2023-02-15T16:53:15.322Z,62.83
2023-02-15T16:56:18.793Z,66.22
2023-02-15T16:59:33.234Z,73.18
2023-02-15T17:02:54.866Z,72.40
2023-02-15T17:05:58.820Z,79.75
2023-02-15T17:09:04.574Z,97.20
2023-02-15T17:12:16.766Z,123.50
2023-02-15T17:15:37.702Z,124.57
2023-02-15T17:18:40.807Z,140.33
2023-02-15T17:21:47.545Z,131.20
2023-02-15T17:24:49.901Z,107.75
2023-02-15T17:27:53.247Z,107.75
2023-02-15T17:30:55.675Z,100.22
2023-02-15T17:33:59.321Z,94.03
2023-02-15T17:37:03.343Z,79.72
2023-02-15T17:40:23.831Z,80.80
2023-02-15T17:43:26.210Z,83.57
2023-02-15T17:46:39.189Z,74.85
2023-02-15T17:49:41.582Z,82.13
2023-02-15T17:52:45.335Z,82.35
2023-02-15T17:55:47.894Z,76.35
2023-02-15T17:58:49.909Z,88.63
2023-02-15T18:02:10.648Z,91.05
2023-02-15T18:05:34.437Z,86.07
2023-02-15T18:08:55.464Z,89.05
2023-02-15T18:11:57.971Z,92.27
2023-02-15T18:15:01.505Z,104.45
2023-02-15T18:18:04.862Z,94.00
2023-02-15T18:21:10.097Z,101.03
2023-02-15T18:24:16.957Z,96.05
2023-02-15T18:27:21.279Z,106.22
2023-02-15T18:30:23.881Z,116.88
2023-02-15T18:33:30.057Z,109.90
2023-02-15T18:36:32.798Z,107.90
2023-02-15T18:39:42.671Z,108.20
2023-02-15T18:42:47.869Z,106.97
2023-02-15T18:45:50.359Z,110.22
2023-02-15T18:48:52.289Z,111.50
2023-02-15T18:51:54.293Z,118.20
2023-02-15T18:54:58.198Z,113.25
2023-02-15T18:58:01.167Z,104.85
2023-02-15T19:01:03.574Z,104.70
2023-02-15T19:04:05.749Z,97.95
2023-02-15T19:07:10.411Z,99.60
2023-02-15T19:10:19.909Z,97.97
2023-02-15T19:13:21.926Z,103.43
2023-02-15T19:16:27.429Z,92.95
2023-02-15T19:19:29.941Z,107.13
2023-02-15T19:22:32.685Z,105.70
2023-02-15T19:25:37.690Z,97.93
2023-02-15T19:28:39.776Z,113.18
2023-02-15T19:31:42.034Z,122.00
2023-02-15T19:34:44.260Z,115.50
2023-02-15T19:37:47.246Z,126.28
2023-02-15T19:40:49.296Z,111.85
2023-02-15T19:43:55.269Z,93.63
2023-02-15T19:46:57.433Z,102.70
2023-02-15T19:50:03.646Z,115.50
2023-02-15T19:53:05.642Z,120.77
2023-02-15T19:56:11.441Z,121.25
2023-02-15T19:59:18.791Z,115.97
2023-02-15T20:02:20.798Z,112.43
2023-02-15T20:05:23.078Z,118.93
2023-02-15T20:08:25.165Z,120.13
2023-02-15T20:11:27.532Z,119.50
2023-02-15T20:14:29.905Z,127.20
2023-02-15T20:17:32.244Z,118.07
2023-02-15T20:20:34.652Z,137.85
2023-02-15T20:23:37.063Z,123.93
2023-02-15T20:26:39.023Z,121.55
2023-02-15T20:29:41.021Z,113.85
2023-02-15T20:32:43.044Z,116.18
2023-02-15T20:35:44.961Z,118.63
2023-02-15T20:38:46.943Z,114.28
2023-02-15T20:41:49.026Z,107.97
2023-02-15T20:44:51.415Z,112.23
2023-02-15T20:47:53.610Z,105.60
2023-02-15T20:50:55.824Z,103.93
2023-02-15T20:53:58.106Z,114.77
2023-02-15T20:57:00.639Z,107.97
2023-02-15T21:00:03.932Z,102.10
2023-02-15T21:03:07.298Z,98.70
2023-02-15T21:06:12.307Z,97.03
2023-02-15T21:09:15.510Z,100.75
2023-02-15T21:12:18.229Z,106.93
2023-02-15T21:15:26.334Z,96.80
2023-02-15T21:18:29.192Z,91.93
2023-02-15T21:21:31.270Z,84.65
2023-02-15T21:24:33.361Z,82.20
2023-02-15T21:27:35.402Z,83.28
2023-02-15T21:30:37.482Z,86.57
2023-02-15T21:33:39.519Z,89.15
2023-02-15T21:36:41.652Z,96.57
2023-02-15T21:39:44.067Z,99.53
2023-02-15T21:43:05.328Z,101.95
2023-02-15T21:46:32.915Z,89.77
2023-02-15T21:49:35.400Z,85.63
2023-02-15T21:52:37.386Z,86.68
2023-02-15T21:55:39.361Z,88.23
2023-02-15T21:58:41.473Z,93.28
2023-02-15T22:01:49.734Z,84.78
2023-02-15T22:04:51.841Z,85.03
2023-02-15T22:07:53.981Z,90.68
2023-02-15T22:10:56.595Z,97.07
2023-02-15T22:13:59.062Z,95.15
2023-02-15T22:17:01.196Z,85.73
2023-02-15T22:20:09.417Z,96.78
2023-02-15T22:23:11.830Z,94.65
2023-02-15T22:26:15.597Z,94.13
2023-02-15T22:29:18.032Z,85.57
2023-02-15T22:32:21.279Z,83.22
2023-02-15T22:35:24.407Z,90.20
2023-02-15T22:38:26.873Z,84.60
2023-02-15T22:41:30.421Z,84.00
2023-02-15T22:44:33.367Z,88.28
2023-02-15T22:47:36.014Z,91.30
2023-02-15T22:50:38.505Z,86.32
2023-02-15T22:53:40.591Z,82.38
2023-02-15T22:56:43.819Z,84.90
2023-02-15T22:59:46.526Z,83.07
2023-02-15T23:02:49.085Z,84.47
2023-02-15T23:05:51.753Z,79.22
2023-02-15T23:08:54.174Z,86.72
2023-02-15T23:11:57.287Z,77.35
2023-02-15T23:14:59.798Z,81.20
2023-02-15T23:18:07.158Z,79.73
2023-02-15T23:21:18.167Z,73.72
2023-02-15T23:24:22.507Z,77.28
2023-02-15T23:27:43.002Z,77.13
2023-02-15T23:30:45.080Z,73.95
2023-02-15T23:33:47.229Z,71.50
2023-02-15T23:36:49.282Z,73.50
2023-02-15T23:40:10.402Z,72.22
2023-02-15T23:43:14.282Z,77.18
2023-02-15T23:46:35.119Z,76.50
2023-02-15T23:49:37.432Z,73.37
2023-02-15T23:52:40.034Z,78.30
2023-02-15T23:55:43.529Z,81.95
2023-02-15T23:58:45.670Z,79.63
